This is the latest recevied weather packets stored in our database for station/object SR2GKG-13. If no packets are shown the sender has not sent any weather packets the latest 10 day(s).
| Time | Temp. | Humidity | Pressure | Rain* | Wind** | Luminosity | Snow |
|---|---|---|---|---|---|---|---|
| 1777718339 | 26.11° C | 22% | 1010.6 hPa | - | - | - | - |
| 1777717438 | 26.11° C | 23% | 1010.8 hPa | - | - | - | - |
| 1777716538 | 25.56° C | 23% | 1010.9 hPa | - | - | - | - |
| 1777715638 | 25° C | 24% | 1011.1 hPa | - | - | - | - |
| 1777714738 | 25.56° C | 24% | 1011.3 hPa | - | - | - | - |
| 1777713838 | 25° C | 25% | 1011.3 hPa | - | - | - | - |
| 1777712938 | 24.44° C | 26% | 1011.6 hPa | - | - | - | - |
| 1777712038 | 24.44° C | 25% | 1011.7 hPa | - | - | - | - |
| 1777711138 | 25° C | 25% | 1011.7 hPa | - | - | - | - |
| 1777710238 | 24.44° C | 25% | 1011.8 hPa | - | - | - | - |
| 1777709338 | 27.78° C | 22% | 1011.9 hPa | - | - | - | - |
| 1777708437 | 24.44° C | 26% | 1012 hPa | - | - | - | - |
| 1777707537 | 26.11° C | 25% | 1012 hPa | - | - | - | - |
| 1777706637 | 24.44° C | 27% | 1012.1 hPa | - | - | - | - |
| 1777705737 | 21.11° C | 29% | 1012.1 hPa | - | - | - | - |
| 1777704837 | 23.89° C | 25% | 1012.1 hPa | - | - | - | - |
| 1777703937 | 24.44° C | 21% | 1012 hPa | - | - | - | - |
| 1777703037 | 25° C | 25% | 1012.1 hPa | - | - | - | - |
| 1777702137 | 22.78° C | 26% | 1012.2 hPa | - | - | - | - |
| 1777701237 | 21.11° C | 34% | 1012.2 hPa | - | - | - | - |
| 1777700337 | 17.22° C | 44% | 1012.5 hPa | - | - | - | - |
| 1777699436 | 13.89° C | 55% | 1012.3 hPa | - | - | - | - |
| 1777698536 | 11.67° C | 67% | 1012.3 hPa | - | - | - | - |
| 1777697636 | 8.89° C | 82% | 1012.3 hPa | - | - | - | - |
| 1777696736 | 7.22° C | 86% | 1012.4 hPa | - | - | - | - |
* Rain since midnight (hover to see other rain measurements)
** Current wind speed in m/s (hover to see current wind gust speed)